Time;durP1;ratioP1;P1;durP2;ratioP2;P2;SDS_P1;SDS_P2;PMS_P1;PMS_P2;Temp;Humidity;BMP_temperature;BMP_pressure;BME280_temperature;BME280_humidity;BME280_pressure;Samples;Min_cycle;Max_cycle;Signal;HPM_P1;HPM_P2
2021/11/22 00:01:07;;;;;;;6.78;1.05;;;;;;;4.30;100.00;102247.06;5012168;28;20030;-72
2021/11/22 00:03:33;;;;;;;6.15;1.52;;;;;;;4.26;100.00;102242.44;5014426;28;20033;-70
2021/11/22 00:05:59;;;;;;;10.18;2.08;;;;;;;4.22;100.00;102246.56;5020446;28;20381;-71
2021/11/22 00:08:24;;;;;;;5.70;1.15;;;;;;;4.22;100.00;102249.19;5013440;28;20032;-72
2021/11/22 00:10:50;;;;;;;10.02;1.40;;;;;;;4.22;100.00;102255.28;5013318;28;20045;-71
2021/11/22 00:13:16;;;;;;;5.90;1.27;;;;;;;4.24;100.00;102252.78;5015037;28;20072;-72
2021/11/22 00:15:41;;;;;;;4.40;1.17;;;;;;;4.22;100.00;102255.28;5012624;28;20034;-72
2021/11/22 00:18:07;;;;;;;5.03;1.20;;;;;;;4.20;100.00;102256.88;5014680;28;20597;-71
2021/11/22 00:20:33;;;;;;;11.63;1.70;;;;;;;4.21;100.00;102265.59;5013533;28;20042;-72
2021/11/22 00:22:58;;;;;;;13.68;2.13;;;;;;;4.19;100.00;102259.38;5011349;28;20021;-72
2021/11/22 00:25:24;;;;;;;9.50;1.88;;;;;;;4.20;100.00;102269.00;5012931;28;20030;-72
2021/11/22 00:27:51;;;;;;;4.20;1.20;;;;;;;4.20;100.00;102266.41;5006392;28;20030;-71
2021/11/22 00:30:17;;;;;;;5.28;1.52;;;;;;;4.20;100.00;102271.63;5013185;28;20030;-71
2021/11/22 00:32:45;;;;;;;11.45;1.95;;;;;;;4.19;100.00;102281.16;5013761;28;20030;-71
2021/11/22 00:35:13;;;;;;;6.45;1.35;;;;;;;4.18;100.00;102270.63;5013626;28;20091;-71
2021/11/22 00:37:41;;;;;;;8.60;1.73;;;;;;;4.17;100.00;102280.13;5012345;28;20026;-71
2021/11/22 00:40:10;;;;;;;7.90;1.70;;;;;;;4.19;100.00;102282.81;5010902;28;20390;-72
2021/11/22 00:42:39;;;;;;;10.23;1.60;;;;;;;4.17;100.00;102281.84;5015368;28;20386;-72
2021/11/22 00:45:06;;;;;;;7.60;1.70;;;;;;;4.16;100.00;102295.66;5012922;28;20041;-72
2021/11/22 00:47:33;;;;;;;4.35;1.10;;;;;;;4.14;100.00;102306.00;5013198;28;20045;-72
2021/11/22 00:49:59;;;;;;;8.27;2.88;;;;;;;4.13;100.00;102306.78;5014097;28;20041;-72
2021/11/22 00:52:25;;;;;;;9.63;1.55;;;;;;;4.13;100.00;102311.09;5012470;28;20022;-72
2021/11/22 00:54:50;;;;;;;7.70;1.88;;;;;;;4.11;100.00;102307.47;5013597;28;20597;-73
2021/11/22 00:57:16;;;;;;;7.38;1.35;;;;;;;4.10;100.00;102310.91;5012894;28;20029;-72
2021/11/22 00:59:41;;;;;;;5.57;2.53;;;;;;;4.09;100.00;102322.13;5012166;28;20113;-72
2021/11/22 01:02:07;;;;;;;10.27;1.77;;;;;;;4.08;100.00;102320.31;5013979;28;20496;-72
2021/11/22 01:04:36;;;;;;;8.15;1.70;;;;;;;4.08;100.00;102320.31;5014159;28;20060;-72
2021/11/22 01:07:02;;;;;;;5.05;1.23;;;;;;;4.05;100.00;102319.28;5014609;28;20056;-72
2021/11/22 01:09:27;;;;;;;12.90;1.60;;;;;;;4.01;100.00;102322.47;5027859;28;20076;-72
2021/11/22 01:11:53;;;;;;;4.97;1.80;;;;;;;3.99;100.00;102323.22;5014707;28;20018;-74
2021/11/22 01:14:19;;;;;;;6.03;1.85;;;;;;;3.98;100.00;102327.50;5012496;28;20026;-73
2021/11/22 01:16:45;;;;;;;10.88;1.42;;;;;;;3.95;100.00;102332.50;5006307;28;20018;-72
2021/11/22 01:19:11;;;;;;;6.72;1.27;;;;;;;3.94;100.00;102337.63;5013467;28;20061;-72
2021/11/22 01:21:37;;;;;;;8.80;1.58;;;;;;;3.93;100.00;102339.28;5011860;28;20045;-72
2021/11/22 01:24:03;;;;;;;11.93;1.98;;;;;;;3.91;100.00;102340.91;5012501;28;20037;-72
2021/11/22 01:26:28;;;;;;;12.90;2.30;;;;;;;3.92;100.00;102340.13;5012909;28;20371;-72
2021/11/22 01:28:53;;;;;;;7.70;1.80;;;;;;;3.90;100.00;102346.91;5009702;28;20030;-73
2021/11/22 01:31:19;;;;;;;8.15;1.60;;;;;;;3.88;100.00;102351.13;5009328;28;20084;-72
2021/11/22 01:33:46;;;;;;;4.85;1.52;;;;;;;3.86;100.00;102353.59;5012344;28;20030;-72
2021/11/22 01:36:12;;;;;;;5.13;1.55;;;;;;;3.85;100.00;102367.44;5011821;28;20037;-71
2021/11/22 01:38:38;;;;;;;5.60;1.27;;;;;;;3.86;100.00;102373.53;5012128;28;20034;-72
2021/11/22 01:41:05;;;;;;;5.35;1.20;;;;;;;3.83;100.00;102374.22;5013567;28;20110;-72
2021/11/22 01:43:31;;;;;;;14.65;3.10;;;;;;;3.83;100.00;102375.94;5016109;28;20500;-71
2021/11/22 01:45:57;;;;;;;6.78;1.50;;;;;;;3.80;100.00;102380.91;5018927;28;20032;-72
2021/11/22 01:48:24;;;;;;;11.10;1.80;;;;;;;3.78;100.00;102374.72;5007266;28;20022;-72
2021/11/22 01:50:53;;;;;;;13.57;1.88;;;;;;;3.77;100.00;102389.44;5012772;28;20106;-72
2021/11/22 01:53:21;;;;;;;10.38;1.65;;;;;;;3.74;100.00;102389.22;5011393;28;20108;-72
2021/11/22 01:55:54;;;;;;;3.85;1.40;;;;;;;3.71;100.00;102389.00;5013508;28;20038;-73
2021/11/22 01:58:19;;;;;;;5.60;1.58;;;;;;;3.69;100.00;102386.31;5018028;28;20052;-72
2021/11/22 02:00:55;;;;;;;8.80;1.60;;;;;;;3.67;100.00;102387.88;5010468;28;20064;-72
2021/11/22 02:03:21;;;;;;;9.73;1.85;;;;;;;3.66;100.00;102401.72;5012209;28;20026;-72
2021/11/22 02:05:51;;;;;;;9.80;1.45;;;;;;;3.66;100.00;102396.50;5011331;28;20092;-72
2021/11/22 02:08:17;;;;;;;7.85;1.65;;;;;;;3.62;100.00;102399.69;5014320;28;20087;-72
2021/11/22 02:10:43;;;;;;;11.25;1.60;;;;;;;3.59;100.00;102399.47;4998748;28;20033;-71
2021/11/22 02:13:09;;;;;;;7.90;1.55;;;;;;;3.59;100.00;102398.56;5012430;28;20537;-72
2021/11/22 02:15:36;;;;;;;9.38;1.52;;;;;;;3.56;100.00;102396.66;5012662;28;20038;-72
2021/11/22 02:18:05;;;;;;;7.07;1.45;;;;;;;3.52;100.00;102398.13;5008906;28;20025;-71
2021/11/22 02:20:31;;;;;;;3.30;1.27;;;;;;;3.52;100.00;102403.34;5011458;28;20048;-71
2021/11/22 02:23:01;;;;;;;7.70;1.00;;;;;;;3.53;100.00;102404.25;5007556;28;20094;-71
2021/11/22 02:25:28;;;;;;;7.03;1.30;;;;;;;3.48;100.00;102403.03;5010684;28;20042;-72
2021/11/22 02:27:55;;;;;;;10.07;1.92;;;;;;;3.51;100.00;102411.03;5012282;28;20033;-73
2021/11/22 02:30:29;;;;;;;4.85;1.13;;;;;;;3.49;100.00;102402.22;5015089;28;20022;-72
2021/11/22 02:32:54;;;;;;;;;;;;;;;3.49;100.00;102415.25;5010843;28;20115;-71
2021/11/22 02:35:20;;;;;;;14.48;1.20;;;;;;;3.48;100.00;102409.13;5010789;28;19952;-72
2021/11/22 02:37:48;;;;;;;10.50;1.30;;;;;;;3.44;100.00;102414.00;5014727;28;20033;-72
2021/11/22 02:40:14;;;;;;;9.38;1.90;;;;;;;3.45;100.00;102421.03;5012786;28;20541;-71
2021/11/22 02:42:44;;;;;;;5.80;1.30;;;;;;;3.44;100.00;102420.09;5011052;28;20033;-72
2021/11/22 02:45:12;;;;;;;2.92;1.25;;;;;;;3.44;100.00;102425.31;5011578;28;20022;-72
2021/11/22 02:47:38;;;;;;;6.25;1.25;;;;;;;3.44;100.00;102424.41;5012788;28;20095;-71
2021/11/22 02:50:05;;;;;;;8.65;1.55;;;;;;;3.43;100.00;102417.41;5010145;28;20474;-72
2021/11/22 02:52:30;;;;;;;7.00;1.20;;;;;;;3.40;100.00;102432.81;5010327;28;20026;-71
2021/11/22 02:54:56;;;;;;;5.60;1.30;;;;;;;3.38;100.00;102435.31;5009008;28;20030;-71
2021/11/22 02:57:21;;;;;;;2.78;1.10;;;;;;;3.36;100.00;102437.81;5010919;28;20041;-71
2021/11/22 02:59:47;;;;;;;7.00;1.23;;;;;;;3.35;100.00;102433.38;5003724;28;20029;-71
2021/11/22 03:02:14;;;;;;;7.40;1.35;;;;;;;3.33;100.00;102447.97;5014687;28;20092;-72
2021/11/22 03:04:43;;;;;;;16.27;1.80;;;;;;;3.29;100.00;102445.94;5012109;28;20109;-71
2021/11/22 03:07:10;;;;;;;2.88;0.90;;;;;;;3.27;100.00;102439.72;5007326;28;20036;-72
2021/11/22 03:09:37;;;;;;;11.63;2.20;;;;;;;3.24;100.00;102449.91;5009876;28;20132;-72
2021/11/22 03:12:05;;;;;;;3.53;1.02;;;;;;;3.24;100.00;102462.91;5012108;28;20486;-71
2021/11/22 03:14:32;;;;;;;10.02;1.20;;;;;;;3.22;100.00;102467.09;5012749;28;20540;-72
2021/11/22 03:16:58;;;;;;;9.32;1.90;;;;;;;3.22;100.00;102464.50;5007948;28;20037;-72
2021/11/22 03:19:24;;;;;;;8.60;1.17;;;;;;;3.22;100.00;102468.81;5013533;28;20034;-72
2021/11/22 03:21:51;;;;;;;6.97;1.40;;;;;;;3.17;100.00;102465.84;5007884;28;20054;-71
2021/11/22 03:24:17;;;;;;;7.78;0.90;;;;;;;3.15;100.00;102472.66;5016428;28;20026;-73
2021/11/22 03:26:43;;;;;;;7.45;1.42;;;;;;;3.12;100.00;102473.34;5014165;28;20502;-72
2021/11/22 03:29:09;;;;;;;8.30;1.25;;;;;;;3.09;100.00;102469.59;5014001;28;20371;-72
2021/11/22 03:31:37;;;;;;;7.47;1.83;;;;;;;3.07;100.00;102484.22;5013920;28;20097;-72
2021/11/22 03:34:04;;;;;;;4.40;1.13;;;;;;;3.02;100.00;102487.34;5017726;28;20025;-72
2021/11/22 03:36:31;;;;;;;5.18;1.00;;;;;;;3.00;100.00;102483.75;5017456;28;20025;-71
2021/11/22 03:38:58;;;;;;;7.70;0.93;;;;;;;2.97;100.00;102487.78;5007764;28;20470;-72
2021/11/22 03:41:24;;;;;;;5.88;1.08;;;;;;;2.98;100.00;102495.72;5009676;28;20387;-70
2021/11/22 03:43:56;;;;;;;7.22;1.45;;;;;;;2.93;100.00;102491.88;5014655;28;20505;-72
2021/11/22 03:46:21;;;;;;;6.63;1.30;;;;;;;2.90;100.00;102494.22;5031664;28;20025;-72
2021/11/22 03:48:47;;;;;;;2.33;1.10;;;;;;;2.89;100.00;102499.31;5013989;28;20033;-71
2021/11/22 03:51:13;;;;;;;5.50;1.20;;;;;;;2.86;100.00;102506.13;5016415;28;20091;-72
2021/11/22 03:53:40;;;;;;;3.00;1.02;;;;;;;2.84;100.00;102505.09;5014716;28;20526;-72
2021/11/22 03:56:07;;;;;;;8.27;1.70;;;;;;;2.84;100.00;102512.00;5014122;28;20022;-72
2021/11/22 03:58:33;;;;;;;5.05;1.40;;;;;;;2.82;100.00;102518.75;5014850;28;20145;-72
2021/11/22 04:00:59;;;;;;;11.65;1.20;;;;;;;2.79;100.00;102518.53;5009559;28;20386;-73
2021/11/22 04:03:25;;;;;;;6.78;1.10;;;;;;;2.77;100.00;102522.69;5014176;28;20064;-72
2021/11/22 04:05:51;;;;;;;10.82;1.20;;;;;;;2.77;100.00;102525.28;5014841;28;20037;-72
2021/11/22 04:08:17;;;;;;;7.50;1.80;;;;;;;2.75;100.00;102529.50;5015838;28;20033;-72
2021/11/22 04:10:43;;;;;;;5.03;1.10;;;;;;;2.73;100.00;102537.19;5014266;28;20042;-72
2021/11/22 04:13:09;;;;;;;7.07;1.20;;;;;;;2.72;100.00;102547.47;5013366;28;20041;-72
2021/11/22 04:15:36;;;;;;;9.27;1.30;;;;;;;2.69;100.00;102540.34;5013244;28;20042;-72
2021/11/22 04:18:02;;;;;;;5.70;1.20;;;;;;;2.68;100.00;102546.31;5007619;28;20505;-71
2021/11/22 04:20:27;;;;;;;5.15;0.95;;;;;;;2.66;100.00;102554.00;5014603;28;20068;-72
2021/11/22 04:22:53;;;;;;;4.95;0.90;;;;;;;2.61;100.00;102559.66;5014781;28;20038;-72
2021/11/22 04:25:20;;;;;;;6.35;1.08;;;;;;;2.61;100.00;102562.25;5011437;28;20030;-72
2021/11/22 04:27:46;;;;;;;8.52;1.23;;;;;;;2.58;100.00;102559.38;5014927;28;20029;-71
2021/11/22 04:30:12;;;;;;;7.00;0.80;;;;;;;2.57;100.00;102568.00;5013643;28;20540;-72
2021/11/22 04:32:40;;;;;;;5.13;1.10;;;;;;;2.54;100.00;102566.06;5006947;28;20089;-71
2021/11/22 04:35:07;;;;;;;9.15;1.30;;;;;;;2.54;100.00;102566.06;5006976;28;20026;-71
2021/11/22 04:37:34;;;;;;;6.70;1.10;;;;;;;2.59;100.00;102575.13;5013610;28;20030;-71
2021/11/22 04:39:59;;;;;;;6.38;1.20;;;;;;;2.55;100.00;102575.69;5014587;28;20018;-71
2021/11/22 04:42:25;;;;;;;4.10;1.10;;;;;;;2.51;100.00;102573.63;5013844;28;20125;-72
2021/11/22 04:44:52;;;;;;;2.22;1.10;;;;;;;2.51;100.00;102579.72;5012409;28;20042;-72
2021/11/22 04:47:20;;;;;;;7.63;1.13;;;;;;;2.50;100.00;102577.00;5014061;28;20033;-72
2021/11/22 04:49:47;;;;;;;8.02;2.40;;;;;;;2.49;100.00;102580.38;5013101;28;20025;-72
2021/11/22 04:52:14;;;;;;;5.82;1.55;;;;;;;2.45;100.00;102580.94;5018702;28;20415;-71
2021/11/22 04:54:40;;;;;;;8.63;1.38;;;;;;;2.43;100.00;102586.00;5010626;28;20034;-73
2021/11/22 04:57:07;;;;;;;5.68;1.33;;;;;;;2.46;100.00;102598.34;5014122;28;20462;-72
2021/11/22 04:59:33;;;;;;;6.28;1.77;;;;;;;2.40;100.00;102590.97;5011441;28;20161;-72
2021/11/22 05:01:59;;;;;;;8.93;1.73;;;;;;;2.35;100.00;102601.00;5013314;28;20091;-72
2021/11/22 05:04:25;;;;;;;3.10;0.90;;;;;;;2.34;100.00;102596.56;5012748;28;20363;-71
2021/11/22 05:06:50;;;;;;;8.57;1.13;;;;;;;2.29;100.00;102591.81;5012729;28;20040;-71
2021/11/22 05:09:16;;;;;;;8.23;1.20;;;;;;;2.27;100.00;102599.50;5012388;28;20038;-72
2021/11/22 05:11:43;;;;;;;4.68;1.20;;;;;;;2.25;100.00;102598.47;5011716;28;20635;-70
2021/11/22 05:14:10;;;;;;;11.70;1.17;;;;;;;2.22;100.00;102603.41;5011127;28;20462;-71
2021/11/22 05:16:36;;;;;;;6.60;1.30;;;;;;;2.21;100.00;102609.38;5013927;28;20040;-71
2021/11/22 05:19:02;;;;;;;6.13;1.38;;;;;;;2.24;100.00;102613.91;5011394;28;20152;-72
2021/11/22 05:21:30;;;;;;;3.50;1.20;;;;;;;2.19;100.00;102616.16;5013328;28;20125;-72
2021/11/22 05:23:56;;;;;;;11.98;1.42;;;;;;;2.19;100.00;102621.34;5004277;28;20049;-72
2021/11/22 05:26:21;;;;;;;4.95;1.17;;;;;;;2.17;100.00;102620.31;5006613;28;20056;-72
2021/11/22 05:28:50;;;;;;;9.05;1.48;;;;;;;2.18;100.00;102623.06;5007611;28;20029;-72
2021/11/22 05:31:16;;;;;;;4.72;1.58;;;;;;;2.19;100.00;102623.97;5013736;28;20053;-72
2021/11/22 05:33:42;;;;;;;5.22;1.27;;;;;;;2.18;100.00;102629.94;5013603;28;20760;-71
2021/11/22 05:36:08;;;;;;;6.25;1.52;;;;;;;2.19;100.00;102631.75;5014061;28;20038;-72
2021/11/22 05:38:34;;;;;;;8.57;1.42;;;;;;;2.21;100.00;102634.47;5013516;28;20081;-71
2021/11/22 05:40:59;;;;;;;7.95;1.27;;;;;;;2.19;100.00;102637.84;5013299;28;20557;-71
2021/11/22 05:43:25;;;;;;;2.88;0.90;;;;;;;2.21;100.00;102640.56;5012615;28;20041;-72
2021/11/22 05:45:51;;;;;;;10.75;1.33;;;;;;;2.23;100.00;102643.31;5011127;28;20497;-72
2021/11/22 05:48:19;;;;;;;6.43;1.23;;;;;;;2.23;100.00;102645.91;5010214;28;20029;-72
2021/11/22 05:50:51;;;;;;;6.53;1.38;;;;;;;2.20;100.00;102646.56;5007425;28;20485;-73
2021/11/22 05:53:17;;;;;;;7.78;1.27;;;;;;;2.20;100.00;102643.97;5010635;28;20033;-72
2021/11/22 05:55:44;;;;;;;7.03;1.00;;;;;;;2.20;100.00;102651.75;5011537;28;20096;-72
2021/11/22 05:58:13;;;;;;;7.10;1.45;;;;;;;2.18;100.00;102658.50;5010726;28;20026;-73
2021/11/22 06:00:40;;;;;;;8.45;1.30;;;;;;;2.21;100.00;102663.94;5022561;28;20509;-72
2021/11/22 06:03:06;;;;;;;4.65;1.35;;;;;;;2.18;100.00;102661.09;5009491;28;20026;-71
2021/11/22 06:05:32;;;;;;;5.10;1.35;;;;;;;2.16;100.00;102665.28;5010394;28;20034;-71
2021/11/22 06:08:00;;;;;;;12.32;1.15;;;;;;;2.15;100.00;102673.84;5011706;28;20108;-71
2021/11/22 06:10:26;;;;;;;7.30;1.60;;;;;;;2.17;100.00;102670.59;5011249;28;20038;-72
2021/11/22 06:12:54;;;;;;;6.50;1.45;;;;;;;2.14;100.00;102675.53;5012526;28;20083;-71
2021/11/22 06:15:19;;;;;;;6.82;1.27;;;;;;;2.14;100.00;102674.63;5011872;28;20037;-72
2021/11/22 06:17:45;;;;;;;5.30;1.35;;;;;;;2.15;100.00;102681.63;5013329;28;20025;-74
2021/11/22 06:20:11;;;;;;;6.57;2.28;;;;;;;2.14;100.00;102685.94;5011173;28;20034;-73
2021/11/22 06:22:37;;;;;;;4.85;1.40;;;;;;;2.11;100.00;102685.66;5012730;28;20033;-76
2021/11/22 06:25:04;;;;;;;8.98;1.40;;;;;;;2.09;100.00;102689.84;5012288;28;20041;-76
2021/11/22 06:27:30;;;;;;;8.88;1.23;;;;;;;2.08;100.00;102701.00;5014617;28;20513;-76
2021/11/22 06:29:55;;;;;;;7.75;1.42;;;;;;;2.13;100.00;102698.75;5009754;28;20026;-73
2021/11/22 06:32:25;;;;;;;12.20;1.85;;;;;;;2.12;100.00;102707.38;5015417;28;20026;-73
2021/11/22 06:34:51;;;;;;;6.40;1.50;;;;;;;2.11;100.00;102697.75;5014495;28;20117;-73
2021/11/22 06:37:18;;;;;;;10.50;1.50;;;;;;;2.10;100.00;102706.31;5015050;28;20108;-74
2021/11/22 06:39:43;;;;;;;4.40;1.20;;;;;;;2.11;100.00;102705.53;5014807;28;20041;-73
2021/11/22 06:42:08;;;;;;;11.27;1.67;;;;;;;2.11;100.00;102711.63;5014049;28;20029;-73
2021/11/22 06:44:36;;;;;;;11.13;1.52;;;;;;;2.11;100.00;102711.63;5010592;28;20489;-72
2021/11/22 06:47:03;;;;;;;5.63;1.75;;;;;;;2.09;100.00;102720.06;5013340;28;20026;-73
2021/11/22 06:49:28;;;;;;;9.98;1.27;;;;;;;2.05;100.00;102725.81;5019909;28;20042;-72
2021/11/22 06:51:54;;;;;;;9.48;1.60;;;;;;;2.01;100.00;102730.75;5017806;28;20060;-73
2021/11/22 06:54:20;;;;;;;6.70;1.50;;;;;;;2.04;100.00;102740.50;5020571;28;20037;-73
2021/11/22 06:56:45;;;;;;;6.78;1.83;;;;;;;1.99;100.00;102745.31;5016743;28;20393;-72
2021/11/22 06:59:11;;;;;;;15.88;1.80;;;;;;;1.97;100.00;102749.47;5020686;28;20098;-73
2021/11/22 07:01:39;;;;;;;4.75;1.35;;;;;;;1.96;100.00;102760.63;5024205;28;20030;-74
2021/11/22 07:04:09;;;;;;;9.88;1.60;;;;;;;1.93;100.00;102764.66;5019428;28;20037;-75
2021/11/22 07:06:35;;;;;;;7.38;3.08;;;;;;;1.93;100.00;102768.16;5030567;28;20135;-73
2021/11/22 07:09:01;;;;;;;4.70;1.58;;;;;;;1.93;100.00;102773.34;5018378;28;20129;-74
2021/11/22 07:11:26;;;;;;;6.53;2.10;;;;;;;1.90;100.00;102778.31;5020652;28;20030;-73
2021/11/22 07:13:52;;;;;;;5.78;1.30;;;;;;;1.88;100.00;102779.84;5011180;28;20034;-72
2021/11/22 07:16:18;;;;;;;8.25;2.10;;;;;;;1.91;100.00;102785.28;5019923;28;20033;-73
2021/11/22 07:18:43;;;;;;;12.35;1.75;;;;;;;1.88;100.00;102790.22;5019153;28;20405;-72
2021/11/22 07:21:11;;;;;;;6.55;1.67;;;;;;;1.84;100.00;102793.34;5017961;28;20122;-73
2021/11/22 07:23:37;;;;;;;8.95;2.15;;;;;;;1.83;100.00;102786.34;5019573;28;20032;-73
2021/11/22 07:26:03;;;;;;;13.10;2.20;;;;;;;1.87;100.00;102798.78;5018973;28;20026;-73
2021/11/22 07:28:28;;;;;;;4.40;1.83;;;;;;;1.83;100.00;102805.44;5014292;28;20418;-74
2021/11/22 07:30:54;;;;;;;4.93;2.03;;;;;;;1.90;100.00;102809.47;5017382;28;20037;-73
2021/11/22 07:33:20;;;;;;;8.65;2.28;;;;;;;1.90;100.00;102816.31;5017429;28;20029;-72
2021/11/22 07:35:45;;;;;;;13.48;2.25;;;;;;;1.85;100.00;102818.53;5018550;28;20037;-72
2021/11/22 07:38:12;;;;;;;4.60;2.00;;;;;;;1.88;100.00;102825.69;5017511;28;20137;-73
2021/11/22 07:40:46;;;;;;;6.85;2.17;;;;;;;1.87;100.00;102827.34;5019516;28;20528;-73
2021/11/22 07:43:15;;;;;;;9.85;2.00;;;;;;;1.86;100.00;102828.16;5019797;28;20432;-76
2021/11/22 07:45:41;;;;;;;13.45;2.38;;;;;;;1.83;100.00;102834.00;5018996;28;20537;-71
2021/11/22 07:48:06;;;;;;;9.73;2.10;;;;;;;1.93;100.00;102835.66;5018791;28;20025;-74
2021/11/22 07:50:32;;;;;;;6.93;1.77;;;;;;;1.89;100.00;102832.69;5027423;28;20033;-74
2021/11/22 07:52:58;;;;;;;12.38;2.60;;;;;;;1.89;100.00;102832.69;5016565;28;20410;-74
2021/11/22 07:55:23;;;;;;;10.13;2.25;;;;;;;1.86;100.00;102833.34;5018625;28;20025;-73
2021/11/22 07:57:54;;;;;;;9.85;2.28;;;;;;;1.87;100.00;102840.31;5020774;28;20343;-74
2021/11/22 08:00:22;;;;;;;6.20;2.17;;;;;;;1.90;100.00;102851.00;5014175;28;20061;-72
2021/11/22 08:02:48;;;;;;;6.45;2.90;;;;;;;1.93;100.00;102855.53;5017023;28;20533;-73
2021/11/22 08:05:14;;;;;;;7.85;2.03;;;;;;;1.93;100.00;102855.53;5016727;28;20033;-73
2021/11/22 08:07:42;;;;;;;13.10;2.47;;;;;;;1.94;100.00;102859.94;5014691;28;20034;-73
2021/11/22 08:12:51;;;;;;;5.22;1.95;;;;;;;2.03;100.00;102873.69;5017190;28;20107;-75
2021/11/22 08:15:17;;;;;;;12.88;2.45;;;;;;;2.08;100.00;102876.69;5018322;28;20094;-73
2021/11/22 08:17:43;;;;;;;11.98;2.35;;;;;;;2.09;100.00;102878.47;5025596;28;20053;-73
2021/11/22 08:20:14;;;;;;;9.38;2.50;;;;;;;2.12;100.00;102882.25;5033331;28;20029;-73
2021/11/22 08:22:40;;;;;;;8.63;2.72;;;;;;;2.14;100.00;102874.59;5008752;28;20072;-72
2021/11/22 08:25:12;;;;;;;10.77;2.72;;;;;;;2.17;100.00;102882.63;5015918;28;20030;-71
2021/11/22 08:27:39;;;;;;;10.45;3.20;;;;;;;2.21;100.00;102879.50;5014314;28;20413;-73
2021/11/22 08:30:07;;;;;;;7.03;2.03;;;;;;;2.23;100.00;102883.16;5017966;28;20033;-72
2021/11/22 08:32:33;;;;;;;6.93;1.90;;;;;;;2.29;100.00;102886.28;5014457;28;20462;-72
2021/11/22 08:34:59;;;;;;;5.28;2.05;;;;;;;2.36;100.00;102886.00;5016339;28;20036;-72
2021/11/22 08:37:25;;;;;;;14.77;2.88;;;;;;;2.43;100.00;102886.47;5013608;28;20390;-73
2021/11/22 08:39:50;;;;;;;9.95;2.70;;;;;;;2.49;100.00;102887.91;5017577;28;20052;-73
2021/11/22 08:42:16;;;;;;;5.47;2.10;;;;;;;2.59;100.00;102902.59;5013798;28;20026;-74
2021/11/22 08:44:48;;;;;;;6.75;2.38;;;;;;;2.64;100.00;102903.84;5014013;28;20740;-72
2021/11/22 08:47:13;;;;;;;13.85;2.45;;;;;;;2.72;100.00;102901.88;5013123;28;20120;-72
2021/11/22 08:49:41;;;;;;;12.23;1.92;;;;;;;2.79;100.00;102906.78;5021755;28;20100;-73
2021/11/22 08:52:06;;;;;;;11.32;2.53;;;;;;;2.87;100.00;102904.81;5013969;28;20097;-72
2021/11/22 08:54:32;;;;;;;18.77;4.53;;;;;;;2.96;100.00;102910.78;5014878;28;20452;-73
2021/11/22 08:56:57;;;;;;;21.20;3.00;;;;;;;3.08;100.00;102912.53;5014544;28;20038;-74
2021/11/22 08:59:23;;;;;;;13.80;2.38;;;;;;;3.17;100.00;102923.69;5015318;28;20017;-73
2021/11/22 09:01:48;;;;;;;7.38;2.58;;;;;;;3.25;100.00;102916.50;5015259;28;20123;-74
2021/11/22 09:04:14;;;;;;;9.60;2.50;;;;;;;3.34;100.00;102930.25;5014702;28;20040;-72
2021/11/22 09:06:40;;;;;;;4.43;2.42;;;;;;;3.44;100.00;102927.56;4997634;28;20048;-73
2021/11/22 09:09:08;;;;;;;7.20;2.90;;;;;;;3.57;100.00;102933.75;5014679;28;20480;-72
2021/11/22 09:11:36;;;;;;;10.45;2.45;;;;;;;3.69;100.00;102943.44;5014285;28;20038;-72
2021/11/22 09:14:01;;;;;;;7.85;2.17;;;;;;;3.85;100.00;102936.81;5010952;28;20404;-73
2021/11/22 09:16:27;;;;;;;11.65;2.35;;;;;;;4.01;100.00;102941.53;5015211;28;20041;-74
2021/11/22 09:18:56;;;;;;;10.57;2.70;;;;;;;4.23;100.00;102938.88;5014977;28;20803;-73
2021/11/22 09:21:22;;;;;;;9.20;2.28;;;;;;;4.49;100.00;102938.25;5018802;28;20045;-73
2021/11/22 09:23:48;;;;;;;6.78;2.38;;;;;;;4.81;100.00;102936.22;5014441;28;20036;-74
2021/11/22 09:26:15;;;;;;;8.77;2.38;;;;;;;5.15;100.00;102942.19;5017040;28;20029;-76
2021/11/22 09:28:42;;;;;;;8.27;1.73;;;;;;;5.54;100.00;102942.34;5019648;28;20112;-76
2021/11/22 09:31:08;;;;;;;14.18;2.50;;;;;;;5.97;100.00;102937.53;5018400;28;20033;-76
2021/11/22 09:33:33;;;;;;;7.20;1.90;;;;;;;6.33;96.59;102943.47;5019891;28;20049;-76
2021/11/22 09:35:59;;;;;;;5.72;2.13;;;;;;;6.62;94.71;102941.94;5018962;28;20540;-77
2021/11/22 09:38:26;;;;;;;5.85;2.13;;;;;;;6.85;91.92;102939.91;5017434;28;20113;-76
2021/11/22 09:40:54;;;;;;;8.23;2.25;;;;;;;7.22;91.80;102948.44;5000303;28;20049;-77
2021/11/22 09:43:19;;;;;;;8.63;2.30;;;;;;;7.37;90.58;102942.41;5037153;28;20017;-76
2021/11/22 09:45:47;;;;;;;7.65;2.13;;;;;;;7.45;89.77;102950.72;5019088;28;20025;-76
2021/11/22 09:48:12;;;;;;;6.53;2.13;;;;;;;7.51;89.89;102949.41;5015767;28;20026;-76
2021/11/22 09:50:38;;;;;;;9.85;2.20;;;;;;;7.59;88.74;102950.78;5016186;28;20040;-76
2021/11/22 09:53:05;;;;;;;11.68;2.08;;;;;;;7.63;89.03;102957.13;5014791;28;20065;-76
2021/11/22 09:55:31;;;;;;;7.78;2.17;;;;;;;7.90;89.20;102962.28;5020321;28;20030;-76
2021/11/22 09:58:01;;;;;;;8.73;2.35;;;;;;;7.90;89.13;102968.41;5015088;28;20029;-73
2021/11/22 10:00:45;;;;;;;10.45;2.58;;;;;;;8.44;87.77;102963.81;5013970;28;20041;-74
2021/11/22 10:03:16;;;;;;;11.65;2.08;;;;;;;8.64;85.52;102951.00;5016829;28;20121;-72
2021/11/22 10:05:45;;;;;;;5.30;2.78;;;;;;;8.49;84.69;102943.16;5018056;28;20611;-71
2021/11/22 10:08:13;;;;;;;10.50;1.92;;;;;;;8.29;86.38;102952.41;5013970;28;20064;-73
2021/11/22 10:10:42;;;;;;;15.48;2.40;;;;;;;8.25;85.92;102953.03;5014970;28;20504;-74
2021/11/22 10:13:29;;;;;;;13.73;2.30;;;;;;;8.53;87.02;102959.97;5019691;28;20022;-74
2021/11/22 10:15:58;;;;;;;8.38;2.25;;;;;;;9.07;85.45;102958.72;5011352;28;20029;-74
2021/11/22 10:18:27;;;;;;;10.73;2.35;;;;;;;9.67;83.01;102954.97;5029463;28;20018;-73
2021/11/22 10:20:54;;;;;;;9.00;1.90;;;;;;;10.20;80.17;102950.75;5011239;28;20041;-73
2021/11/22 10:23:22;;;;;;;7.22;2.58;;;;;;;10.62;78.66;102945.91;5013019;28;20045;-73
2021/11/22 10:25:48;;;;;;;10.77;1.98;;;;;;;10.87;76.84;102944.53;5025072;28;20104;-73
2021/11/22 10:28:15;;;;;;;9.13;2.20;;;;;;;11.12;76.03;102941.34;5015850;28;20538;-73
2021/11/22 10:30:56;;;;;;;7.07;2.17;;;;;;;11.04;74.08;102934.81;5014261;28;20045;-73
2021/11/22 10:33:24;;;;;;;6.57;2.03;;;;;;;11.24;77.45;102943.66;5017052;28;20033;-73
2021/11/22 10:35:54;;;;;;;6.30;2.13;;;;;;;11.10;75.18;102940.38;5019349;28;20049;-73
2021/11/22 10:38:28;;;;;;;9.70;2.03;;;;;;;11.48;76.59;102943.94;5013373;28;20033;-73
2021/11/22 10:41:06;;;;;;;8.73;2.15;;;;;;;11.71;74.17;102941.47;5014116;28;20030;-73
2021/11/22 10:44:00;;;;;;;9.57;1.58;;;;;;;11.69;74.06;102948.38;5005615;28;20080;-73
2021/11/22 10:46:54;;;;;;;7.03;1.70;;;;;;;11.93;70.94;102932.78;5014311;28;20033;-76
2021/11/22 10:49:33;;;;;;;6.95;2.28;;;;;;;11.79;73.29;102940.97;5012632;28;20277;-75
2021/11/22 10:52:12;;;;;;;5.85;1.35;;;;;;;12.20;71.45;102935.75;5031163;28;20034;-75
2021/11/22 10:55:00;;;;;;;8.73;1.40;;;;;;;12.44;67.71;102921.81;5014076;28;20360;-76
2021/11/22 10:58:00;;;;;;;6.13;1.90;;;;;;;12.32;70.47;102938.03;5014489;28;20021;-77
2021/11/22 11:00:31;;;;;;;11.10;1.75;;;;;;;12.42;67.80;102926.13;5012473;28;20033;-76
2021/11/22 11:03:04;;;;;;;4.85;1.10;;;;;;;12.54;63.87;102918.72;5022391;28;20030;-76
2021/11/22 11:05:32;;;;;;;4.75;1.60;;;;;;;12.38;67.18;102934.75;5022220;28;20117;-78
2021/11/22 11:08:05;;;;;;;5.63;1.20;;;;;;;12.14;68.01;102938.13;5016040;28;20032;-76
2021/11/22 11:10:33;;;;;;;3.25;1.20;;;;;;;11.94;71.28;102945.13;5014319;28;20044;-77
2021/11/22 11:12:59;;;;;;;6.05;1.98;;;;;;;12.29;67.70;102943.19;5014522;28;20053;-75
2021/11/22 11:15:26;;;;;;;4.00;1.00;;;;;;;12.48;65.76;102932.56;5015397;28;20116;-77
2021/11/22 11:17:52;;;;;;;4.32;1.00;;;;;;;12.70;64.34;102936.09;5015291;28;20045;-77
2021/11/22 11:20:20;;;;;;;8.68;0.93;;;;;;;12.43;64.92;102939.38;5013592;28;20050;-75
2021/11/22 11:22:47;;;;;;;9.45;1.25;;;;;;;12.42;68.94;102947.25;5014055;28;20026;-77
2021/11/22 11:25:15;;;;;;;3.28;1.00;;;;;;;12.73;65.92;102946.78;5012643;28;20068;-76
2021/11/22 11:27:44;;;;;;;3.70;1.25;;;;;;;12.51;63.59;102934.44;5013925;28;20048;-76